sensor_id;sensor_type;location;lat;lon;timestamp;P1;durP1;ratioP1;P2;durP2;ratioP2
50355;SDS011;36264;51.296;-0.602;2022-12-07T00:01:28;12.48;;;5.20;;
50355;SDS011;36264;51.296;-0.602;2022-12-07T00:03:56;9.57;;;5.20;;
50355;SDS011;36264;51.296;-0.602;2022-12-07T00:06:28;9.25;;;4.53;;
50355;SDS011;36264;51.296;-0.602;2022-12-07T00:08:54;11.30;;;4.80;;
50355;SDS011;36264;51.296;-0.602;2022-12-07T00:11:20;9.95;;;4.53;;
50355;SDS011;36264;51.296;-0.602;2022-12-07T00:13:47;10.40;;;5.90;;
50355;SDS011;36264;51.296;-0.602;2022-12-07T00:16:16;15.23;;;6.80;;
50355;SDS011;36264;51.296;-0.602;2022-12-07T00:18:43;10.63;;;6.20;;
50355;SDS011;36264;51.296;-0.602;2022-12-07T00:21:14;14.85;;;6.70;;
50355;SDS011;36264;51.296;-0.602;2022-12-07T00:23:41;9.45;;;5.72;;
50355;SDS011;36264;51.296;-0.602;2022-12-07T00:28:38;14.52;;;6.03;;
50355;SDS011;36264;51.296;-0.602;2022-12-07T00:31:07;10.93;;;5.88;;
50355;SDS011;36264;51.296;-0.602;2022-12-07T00:33:34;10.65;;;5.47;;
50355;SDS011;36264;51.296;-0.602;2022-12-07T00:36:01;9.63;;;5.40;;
50355;SDS011;36264;51.296;-0.602;2022-12-07T00:38:29;12.43;;;5.90;;
50355;SDS011;36264;51.296;-0.602;2022-12-07T00:40:57;11.88;;;5.47;;
50355;SDS011;36264;51.296;-0.602;2022-12-07T00:43:27;11.93;;;5.80;;
50355;SDS011;36264;51.296;-0.602;2022-12-07T00:45:53;11.20;;;5.35;;
50355;SDS011;36264;51.296;-0.602;2022-12-07T00:48:19;11.05;;;5.63;;
50355;SDS011;36264;51.296;-0.602;2022-12-07T00:50:45;11.52;;;5.43;;
50355;SDS011;36264;51.296;-0.602;2022-12-07T00:53:10;9.43;;;5.55;;
50355;SDS011;36264;51.296;-0.602;2022-12-07T00:55:36;11.23;;;5.85;;
50355;SDS011;36264;51.296;-0.602;2022-12-07T00:58:02;11.43;;;5.55;;
50355;SDS011;36264;51.296;-0.602;2022-12-07T01:00:28;9.50;;;6.00;;
50355;SDS011;36264;51.296;-0.602;2022-12-07T01:02:53;14.52;;;6.47;;
50355;SDS011;36264;51.296;-0.602;2022-12-07T01:05:19;10.48;;;5.80;;
50355;SDS011;36264;51.296;-0.602;2022-12-07T01:07:44;10.55;;;5.35;;
50355;SDS011;36264;51.296;-0.602;2022-12-07T01:10:11;8.95;;;4.97;;
50355;SDS011;36264;51.296;-0.602;2022-12-07T01:12:37;13.05;;;6.07;;
50355;SDS011;36264;51.296;-0.602;2022-12-07T01:15:02;9.88;;;5.93;;
50355;SDS011;36264;51.296;-0.602;2022-12-07T01:17:28;9.15;;;5.32;;
50355;SDS011;36264;51.296;-0.602;2022-12-07T01:19:53;10.35;;;5.75;;
50355;SDS011;36264;51.296;-0.602;2022-12-07T01:22:19;11.93;;;5.25;;
50355;SDS011;36264;51.296;-0.602;2022-12-07T01:24:44;8.20;;;4.78;;
50355;SDS011;36264;51.296;-0.602;2022-12-07T01:27:11;9.18;;;5.70;;
50355;SDS011;36264;51.296;-0.602;2022-12-07T01:29:37;9.38;;;5.20;;
50355;SDS011;36264;51.296;-0.602;2022-12-07T01:32:03;12.18;;;5.55;;
50355;SDS011;36264;51.296;-0.602;2022-12-07T01:34:28;6.93;;;4.00;;
50355;SDS011;36264;51.296;-0.602;2022-12-07T01:36:54;10.00;;;5.70;;
50355;SDS011;36264;51.296;-0.602;2022-12-07T01:39:19;9.70;;;5.00;;
50355;SDS011;36264;51.296;-0.602;2022-12-07T01:41:44;11.73;;;5.90;;
50355;SDS011;36264;51.296;-0.602;2022-12-07T01:44:11;11.43;;;5.95;;
50355;SDS011;36264;51.296;-0.602;2022-12-07T01:46:43;8.93;;;5.00;;
50355;SDS011;36264;51.296;-0.602;2022-12-07T01:49:12;8.73;;;4.57;;
50355;SDS011;36264;51.296;-0.602;2022-12-07T01:51:42;9.70;;;5.47;;
50355;SDS011;36264;51.296;-0.602;2022-12-07T01:54:10;8.80;;;4.70;;
50355;SDS011;36264;51.296;-0.602;2022-12-07T01:56:37;13.63;;;6.10;;
50355;SDS011;36264;51.296;-0.602;2022-12-07T01:59:05;9.10;;;4.97;;
50355;SDS011;36264;51.296;-0.602;2022-12-07T02:01:30;8.63;;;4.68;;
50355;SDS011;36264;51.296;-0.602;2022-12-07T02:03:56;12.80;;;5.93;;
50355;SDS011;36264;51.296;-0.602;2022-12-07T02:06:23;9.38;;;4.72;;
50355;SDS011;36264;51.296;-0.602;2022-12-07T02:08:50;8.52;;;5.35;;
50355;SDS011;36264;51.296;-0.602;2022-12-07T02:11:16;8.80;;;5.30;;
50355;SDS011;36264;51.296;-0.602;2022-12-07T02:13:42;11.15;;;5.20;;
50355;SDS011;36264;51.296;-0.602;2022-12-07T02:16:16;8.82;;;4.88;;
50355;SDS011;36264;51.296;-0.602;2022-12-07T02:38:11;10.55;;;4.65;;
50355;SDS011;36264;51.296;-0.602;2022-12-07T02:40:53;9.25;;;4.72;;
50355;SDS011;36264;51.296;-0.602;2022-12-07T02:43:23;9.43;;;4.75;;
50355;SDS011;36264;51.296;-0.602;2022-12-07T02:45:52;8.80;;;3.75;;
50355;SDS011;36264;51.296;-0.602;2022-12-07T02:48:20;8.45;;;4.45;;
50355;SDS011;36264;51.296;-0.602;2022-12-07T02:50:50;9.05;;;4.55;;
50355;SDS011;36264;51.296;-0.602;2022-12-07T02:55:54;6.95;;;3.95;;
50355;SDS011;36264;51.296;-0.602;2022-12-07T02:58:23;12.38;;;4.75;;
50355;SDS011;36264;51.296;-0.602;2022-12-07T03:04:22;9.93;;;4.10;;
50355;SDS011;36264;51.296;-0.602;2022-12-07T03:07:04;7.78;;;4.25;;
50355;SDS011;36264;51.296;-0.602;2022-12-07T03:09:35;9.80;;;5.15;;
50355;SDS011;36264;51.296;-0.602;2022-12-07T03:12:12;10.63;;;4.57;;
50355;SDS011;36264;51.296;-0.602;2022-12-07T03:14:47;11.40;;;5.13;;
50355;SDS011;36264;51.296;-0.602;2022-12-07T03:17:20;14.20;;;5.78;;
50355;SDS011;36264;51.296;-0.602;2022-12-07T03:19:50;11.05;;;5.13;;
50355;SDS011;36264;51.296;-0.602;2022-12-07T03:22:21;10.20;;;4.95;;
50355;SDS011;36264;51.296;-0.602;2022-12-07T03:24:49;9.98;;;5.10;;
50355;SDS011;36264;51.296;-0.602;2022-12-07T03:27:20;10.60;;;3.85;;
50355;SDS011;36264;51.296;-0.602;2022-12-07T03:29:57;11.75;;;6.28;;
50355;SDS011;36264;51.296;-0.602;2022-12-07T03:35:28;11.43;;;5.53;;
50355;SDS011;36264;51.296;-0.602;2022-12-07T03:38:17;12.20;;;5.93;;
50355;SDS011;36264;51.296;-0.602;2022-12-07T03:40:55;15.77;;;6.22;;
50355;SDS011;36264;51.296;-0.602;2022-12-07T03:43:28;13.02;;;5.22;;
50355;SDS011;36264;51.296;-0.602;2022-12-07T03:46:06;12.13;;;5.32;;
50355;SDS011;36264;51.296;-0.602;2022-12-07T03:48:55;8.48;;;5.25;;
50355;SDS011;36264;51.296;-0.602;2022-12-07T03:54:01;10.13;;;4.78;;
50355;SDS011;36264;51.296;-0.602;2022-12-07T03:56:35;14.95;;;6.13;;
50355;SDS011;36264;51.296;-0.602;2022-12-07T03:59:02;11.85;;;5.72;;
50355;SDS011;36264;51.296;-0.602;2022-12-07T04:01:27;11.65;;;5.35;;
50355;SDS011;36264;51.296;-0.602;2022-12-07T04:03:53;9.60;;;5.10;;
50355;SDS011;36264;51.296;-0.602;2022-12-07T04:06:18;9.52;;;5.05;;
50355;SDS011;36264;51.296;-0.602;2022-12-07T04:08:44;10.63;;;5.20;;
50355;SDS011;36264;51.296;-0.602;2022-12-07T04:11:09;11.60;;;4.85;;
50355;SDS011;36264;51.296;-0.602;2022-12-07T04:13:34;9.93;;;5.40;;
50355;SDS011;36264;51.296;-0.602;2022-12-07T04:16:20;8.82;;;4.80;;
50355;SDS011;36264;51.296;-0.602;2022-12-07T04:18:45;10.48;;;5.28;;
50355;SDS011;36264;51.296;-0.602;2022-12-07T04:21:11;11.00;;;5.85;;
50355;SDS011;36264;51.296;-0.602;2022-12-07T04:23:36;10.85;;;4.95;;
50355;SDS011;36264;51.296;-0.602;2022-12-07T04:26:01;14.27;;;5.70;;
50355;SDS011;36264;51.296;-0.602;2022-12-07T04:28:27;9.73;;;5.47;;
50355;SDS011;36264;51.296;-0.602;2022-12-07T04:30:52;11.68;;;5.72;;
50355;SDS011;36264;51.296;-0.602;2022-12-07T04:33:17;11.32;;;5.75;;
50355;SDS011;36264;51.296;-0.602;2022-12-07T04:35:43;12.93;;;6.13;;
50355;SDS011;36264;51.296;-0.602;2022-12-07T04:38:08;10.98;;;5.78;;
50355;SDS011;36264;51.296;-0.602;2022-12-07T04:40:34;12.95;;;6.32;;
50355;SDS011;36264;51.296;-0.602;2022-12-07T04:42:59;13.60;;;6.57;;
50355;SDS011;36264;51.296;-0.602;2022-12-07T04:45:25;11.75;;;6.05;;
50355;SDS011;36264;51.296;-0.602;2022-12-07T04:47:50;13.40;;;5.70;;
50355;SDS011;36264;51.296;-0.602;2022-12-07T04:50:15;13.73;;;6.07;;
50355;SDS011;36264;51.296;-0.602;2022-12-07T04:52:41;14.65;;;6.70;;
50355;SDS011;36264;51.296;-0.602;2022-12-07T04:55:06;11.18;;;4.78;;
50355;SDS011;36264;51.296;-0.602;2022-12-07T04:57:32;12.32;;;6.10;;
50355;SDS011;36264;51.296;-0.602;2022-12-07T04:59:57;8.55;;;5.13;;
50355;SDS011;36264;51.296;-0.602;2022-12-07T05:02:23;11.18;;;5.60;;
50355;SDS011;36264;51.296;-0.602;2022-12-07T05:04:48;13.80;;;6.60;;
50355;SDS011;36264;51.296;-0.602;2022-12-07T05:07:13;12.90;;;6.15;;
50355;SDS011;36264;51.296;-0.602;2022-12-07T05:09:39;14.00;;;6.63;;
50355;SDS011;36264;51.296;-0.602;2022-12-07T05:12:04;13.07;;;5.95;;
50355;SDS011;36264;51.296;-0.602;2022-12-07T05:14:30;11.82;;;5.68;;
50355;SDS011;36264;51.296;-0.602;2022-12-07T05:16:55;10.18;;;5.07;;
50355;SDS011;36264;51.296;-0.602;2022-12-07T05:19:20;12.35;;;6.15;;
50355;SDS011;36264;51.296;-0.602;2022-12-07T05:21:46;10.32;;;5.25;;
50355;SDS011;36264;51.296;-0.602;2022-12-07T05:24:13;10.57;;;5.63;;
50355;SDS011;36264;51.296;-0.602;2022-12-07T05:26:40;10.65;;;5.15;;
50355;SDS011;36264;51.296;-0.602;2022-12-07T05:29:06;12.43;;;5.68;;
50355;SDS011;36264;51.296;-0.602;2022-12-07T05:31:32;8.40;;;4.80;;
50355;SDS011;36264;51.296;-0.602;2022-12-07T05:33:59;10.82;;;6.00;;
50355;SDS011;36264;51.296;-0.602;2022-12-07T05:36:24;9.48;;;5.28;;
50355;SDS011;36264;51.296;-0.602;2022-12-07T05:38:49;7.32;;;4.53;;
50355;SDS011;36264;51.296;-0.602;2022-12-07T05:41:16;11.07;;;5.63;;
50355;SDS011;36264;51.296;-0.602;2022-12-07T05:44:01;8.68;;;4.55;;
50355;SDS011;36264;51.296;-0.602;2022-12-07T05:46:26;9.85;;;5.18;;
50355;SDS011;36264;51.296;-0.602;2022-12-07T05:48:52;10.73;;;5.00;;
50355;SDS011;36264;51.296;-0.602;2022-12-07T05:51:17;10.98;;;5.28;;
50355;SDS011;36264;51.296;-0.602;2022-12-07T05:53:43;9.77;;;5.30;;
50355;SDS011;36264;51.296;-0.602;2022-12-07T05:56:09;12.88;;;6.03;;
50355;SDS011;36264;51.296;-0.602;2022-12-07T05:58:34;11.43;;;5.57;;
50355;SDS011;36264;51.296;-0.602;2022-12-07T06:01:18;11.68;;;5.68;;
50355;SDS011;36264;51.296;-0.602;2022-12-07T06:03:43;11.05;;;5.25;;
50355;SDS011;36264;51.296;-0.602;2022-12-07T06:06:09;11.93;;;6.30;;
50355;SDS011;36264;51.296;-0.602;2022-12-07T06:08:35;13.80;;;7.15;;
50355;SDS011;36264;51.296;-0.602;2022-12-07T06:11:00;15.82;;;5.82;;
50355;SDS011;36264;51.296;-0.602;2022-12-07T06:13:44;9.30;;;5.38;;
50355;SDS011;36264;51.296;-0.602;2022-12-07T06:16:09;8.63;;;5.13;;
50355;SDS011;36264;51.296;-0.602;2022-12-07T06:18:35;9.70;;;4.85;;
50355;SDS011;36264;51.296;-0.602;2022-12-07T06:21:00;13.80;;;5.40;;
50355;SDS011;36264;51.296;-0.602;2022-12-07T06:23:25;11.48;;;5.40;;
50355;SDS011;36264;51.296;-0.602;2022-12-07T06:25:51;9.57;;;4.93;;
50355;SDS011;36264;51.296;-0.602;2022-12-07T06:28:16;9.77;;;5.53;;
50355;SDS011;36264;51.296;-0.602;2022-12-07T06:30:41;13.15;;;5.20;;
50355;SDS011;36264;51.296;-0.602;2022-12-07T06:33:07;7.88;;;4.88;;
50355;SDS011;36264;51.296;-0.602;2022-12-07T06:35:32;12.63;;;4.78;;
50355;SDS011;36264;51.296;-0.602;2022-12-07T06:37:58;10.18;;;4.95;;
50355;SDS011;36264;51.296;-0.602;2022-12-07T06:40:24;10.07;;;5.65;;
50355;SDS011;36264;51.296;-0.602;2022-12-07T06:42:49;11.68;;;5.63;;
50355;SDS011;36264;51.296;-0.602;2022-12-07T06:45:14;9.20;;;4.85;;
50355;SDS011;36264;51.296;-0.602;2022-12-07T06:47:40;9.65;;;5.03;;
50355;SDS011;36264;51.296;-0.602;2022-12-07T06:50:06;12.50;;;6.10;;
50355;SDS011;36264;51.296;-0.602;2022-12-07T06:52:32;9.80;;;5.20;;
50355;SDS011;36264;51.296;-0.602;2022-12-07T06:54:58;8.95;;;5.22;;
50355;SDS011;36264;51.296;-0.602;2022-12-07T06:57:24;11.52;;;5.13;;
50355;SDS011;36264;51.296;-0.602;2022-12-07T06:59:49;11.57;;;5.78;;
50355;SDS011;36264;51.296;-0.602;2022-12-07T07:02:15;12.23;;;5.85;;
50355;SDS011;36264;51.296;-0.602;2022-12-07T07:04:40;10.38;;;5.80;;
50355;SDS011;36264;51.296;-0.602;2022-12-07T07:07:06;9.77;;;5.40;;
50355;SDS011;36264;51.296;-0.602;2022-12-07T07:09:31;9.32;;;4.65;;
50355;SDS011;36264;51.296;-0.602;2022-12-07T07:11:56;11.93;;;6.03;;
50355;SDS011;36264;51.296;-0.602;2022-12-07T07:14:22;9.10;;;4.65;;
50355;SDS011;36264;51.296;-0.602;2022-12-07T07:16:47;9.55;;;5.22;;
50355;SDS011;36264;51.296;-0.602;2022-12-07T07:19:12;15.77;;;6.65;;
50355;SDS011;36264;51.296;-0.602;2022-12-07T07:21:38;11.20;;;4.82;;
50355;SDS011;36264;51.296;-0.602;2022-12-07T07:24:03;10.30;;;5.18;;
50355;SDS011;36264;51.296;-0.602;2022-12-07T07:26:29;8.85;;;5.35;;
50355;SDS011;36264;51.296;-0.602;2022-12-07T07:28:55;14.48;;;5.35;;
50355;SDS011;36264;51.296;-0.602;2022-12-07T07:31:20;10.27;;;5.40;;
50355;SDS011;36264;51.296;-0.602;2022-12-07T07:33:46;11.50;;;5.97;;
50355;SDS011;36264;51.296;-0.602;2022-12-07T07:36:12;9.32;;;4.70;;
50355;SDS011;36264;51.296;-0.602;2022-12-07T07:38:37;10.15;;;4.93;;
50355;SDS011;36264;51.296;-0.602;2022-12-07T07:41:03;11.30;;;4.93;;
50355;SDS011;36264;51.296;-0.602;2022-12-07T07:43:28;9.98;;;4.82;;
50355;SDS011;36264;51.296;-0.602;2022-12-07T07:45:54;9.45;;;5.05;;
50355;SDS011;36264;51.296;-0.602;2022-12-07T07:48:19;12.02;;;4.82;;
50355;SDS011;36264;51.296;-0.602;2022-12-07T07:50:44;11.20;;;4.97;;
50355;SDS011;36264;51.296;-0.602;2022-12-07T07:53:10;10.02;;;4.85;;
50355;SDS011;36264;51.296;-0.602;2022-12-07T07:55:35;9.88;;;5.20;;
50355;SDS011;36264;51.296;-0.602;2022-12-07T07:58:01;12.45;;;5.07;;
50355;SDS011;36264;51.296;-0.602;2022-12-07T08:00:26;7.80;;;4.93;;
50355;SDS011;36264;51.296;-0.602;2022-12-07T08:02:51;10.73;;;4.97;;
50355;SDS011;36264;51.296;-0.602;2022-12-07T08:05:17;8.98;;;4.80;;
50355;SDS011;36264;51.296;-0.602;2022-12-07T08:07:42;15.52;;;5.05;;
50355;SDS011;36264;51.296;-0.602;2022-12-07T08:10:09;8.52;;;5.07;;
50355;SDS011;36264;51.296;-0.602;2022-12-07T08:12:37;8.05;;;4.13;;
50355;SDS011;36264;51.296;-0.602;2022-12-07T08:15:23;9.52;;;4.20;;
50355;SDS011;36264;51.296;-0.602;2022-12-07T08:17:49;9.27;;;4.32;;
50355;SDS011;36264;51.296;-0.602;2022-12-07T08:20:15;9.23;;;5.05;;
50355;SDS011;36264;51.296;-0.602;2022-12-07T08:22:40;12.35;;;4.90;;
50355;SDS011;36264;51.296;-0.602;2022-12-07T08:25:05;10.05;;;4.28;;
50355;SDS011;36264;51.296;-0.602;2022-12-07T08:27:31;12.98;;;4.88;;
50355;SDS011;36264;51.296;-0.602;2022-12-07T08:29:56;10.00;;;4.57;;
50355;SDS011;36264;51.296;-0.602;2022-12-07T08:32:21;9.65;;;4.63;;
50355;SDS011;36264;51.296;-0.602;2022-12-07T08:34:47;9.00;;;4.60;;
50355;SDS011;36264;51.296;-0.602;2022-12-07T08:37:12;8.55;;;4.85;;
50355;SDS011;36264;51.296;-0.602;2022-12-07T08:39:37;9.68;;;4.57;;
50355;SDS011;36264;51.296;-0.602;2022-12-07T08:42:03;14.82;;;5.15;;
50355;SDS011;36264;51.296;-0.602;2022-12-07T08:44:28;7.82;;;4.55;;
50355;SDS011;36264;51.296;-0.602;2022-12-07T08:46:55;9.48;;;4.70;;
50355;SDS011;36264;51.296;-0.602;2022-12-07T08:49:36;9.23;;;4.75;;
50355;SDS011;36264;51.296;-0.602;2022-12-07T08:52:08;11.18;;;4.97;;
50355;SDS011;36264;51.296;-0.602;2022-12-07T08:54:35;13.18;;;5.82;;
50355;SDS011;36264;51.296;-0.602;2022-12-07T08:57:03;10.93;;;4.72;;
50355;SDS011;36264;51.296;-0.602;2022-12-07T08:59:31;9.93;;;4.95;;
50355;SDS011;36264;51.296;-0.602;2022-12-07T09:01:59;13.32;;;4.95;;
50355;SDS011;36264;51.296;-0.602;2022-12-07T09:04:24;12.70;;;5.60;;
50355;SDS011;36264;51.296;-0.602;2022-12-07T09:36:00;22.45;;;11.40;;
50355;SDS011;36264;51.296;-0.602;2022-12-07T09:38:26;22.10;;;10.63;;
50355;SDS011;36264;51.296;-0.602;2022-12-07T09:40:51;11.88;;;7.85;;
50355;SDS011;36264;51.296;-0.602;2022-12-07T09:43:18;14.65;;;7.28;;
50355;SDS011;36264;51.296;-0.602;2022-12-07T09:45:46;12.00;;;6.93;;
50355;SDS011;36264;51.296;-0.602;2022-12-07T09:48:15;11.20;;;6.57;;
50355;SDS011;36264;51.296;-0.602;2022-12-07T09:50:44;11.45;;;7.05;;
50355;SDS011;36264;51.296;-0.602;2022-12-07T09:53:25;10.98;;;5.35;;
50355;SDS011;36264;51.296;-0.602;2022-12-07T09:55:53;16.60;;;6.88;;
50355;SDS011;36264;51.296;-0.602;2022-12-07T09:58:24;11.35;;;6.32;;
50355;SDS011;36264;51.296;-0.602;2022-12-07T10:00:55;14.73;;;7.13;;
50355;SDS011;36264;51.296;-0.602;2022-12-07T10:03:23;14.88;;;6.80;;
50355;SDS011;36264;51.296;-0.602;2022-12-07T10:05:49;10.93;;;5.72;;
50355;SDS011;36264;51.296;-0.602;2022-12-07T10:08:16;13.10;;;6.88;;
50355;SDS011;36264;51.296;-0.602;2022-12-07T10:10:42;12.63;;;7.00;;
50355;SDS011;36264;51.296;-0.602;2022-12-07T10:13:10;13.68;;;6.78;;
50355;SDS011;36264;51.296;-0.602;2022-12-07T10:18:19;12.32;;;6.72;;
50355;SDS011;36264;51.296;-0.602;2022-12-07T10:20:50;15.10;;;7.88;;
50355;SDS011;36264;51.296;-0.602;2022-12-07T10:31:36;14.50;;;7.13;;
50355;SDS011;36264;51.296;-0.602;2022-12-07T10:34:12;13.23;;;7.68;;
50355;SDS011;36264;51.296;-0.602;2022-12-07T10:36:52;13.38;;;7.35;;
50355;SDS011;36264;51.296;-0.602;2022-12-07T10:39:22;8.95;;;5.60;;
50355;SDS011;36264;51.296;-0.602;2022-12-07T10:41:59;13.60;;;7.55;;
50355;SDS011;36264;51.296;-0.602;2022-12-07T10:44:30;20.13;;;8.57;;
50355;SDS011;36264;51.296;-0.602;2022-12-07T10:52:40;14.90;;;7.30;;
50355;SDS011;36264;51.296;-0.602;2022-12-07T11:06:37;16.70;;;6.97;;
50355;SDS011;36264;51.296;-0.602;2022-12-07T11:09:20;11.85;;;7.03;;
50355;SDS011;36264;51.296;-0.602;2022-12-07T11:12:25;11.20;;;6.47;;
50355;SDS011;36264;51.296;-0.602;2022-12-07T11:15:04;9.93;;;5.32;;
50355;SDS011;36264;51.296;-0.602;2022-12-07T11:23:25;10.13;;;5.65;;
50355;SDS011;36264;51.296;-0.602;2022-12-07T11:25:57;11.82;;;5.50;;
50355;SDS011;36264;51.296;-0.602;2022-12-07T11:33:56;10.85;;;6.22;;
50355;SDS011;36264;51.296;-0.602;2022-12-07T11:36:41;13.70;;;7.38;;
50355;SDS011;36264;51.296;-0.602;2022-12-07T11:41:35;13.90;;;6.30;;
50355;SDS011;36264;51.296;-0.602;2022-12-07T11:44:12;13.40;;;6.00;;
50355;SDS011;36264;51.296;-0.602;2022-12-07T11:46:54;11.63;;;6.55;;
50355;SDS011;36264;51.296;-0.602;2022-12-07T11:51:52;8.48;;;4.93;;
50355;SDS011;36264;51.296;-0.602;2022-12-07T11:54:25;10.85;;;5.20;;
50355;SDS011;36264;51.296;-0.602;2022-12-07T11:56:59;8.40;;;4.85;;
50355;SDS011;36264;51.296;-0.602;2022-12-07T11:59:39;11.30;;;4.85;;
50355;SDS011;36264;51.296;-0.602;2022-12-07T12:02:26;10.57;;;5.78;;
50355;SDS011;36264;51.296;-0.602;2022-12-07T12:05:17;11.90;;;5.80;;
50355;SDS011;36264;51.296;-0.602;2022-12-07T12:07:46;12.35;;;6.70;;
50355;SDS011;36264;51.296;-0.602;2022-12-07T12:22:21;11.10;;;4.97;;
50355;SDS011;36264;51.296;-0.602;2022-12-07T12:24:53;9.13;;;4.43;;
50355;SDS011;36264;51.296;-0.602;2022-12-07T12:27:23;9.27;;;4.20;;
50355;SDS011;36264;51.296;-0.602;2022-12-07T12:29:55;6.40;;;3.58;;
50355;SDS011;36264;51.296;-0.602;2022-12-07T12:32:29;8.20;;;3.97;;
50355;SDS011;36264;51.296;-0.602;2022-12-07T12:35:01;6.30;;;3.67;;
50355;SDS011;36264;51.296;-0.602;2022-12-07T12:40:58;8.63;;;4.05;;
50355;SDS011;36264;51.296;-0.602;2022-12-07T12:43:47;7.35;;;3.90;;
50355;SDS011;36264;51.296;-0.602;2022-12-07T12:48:55;9.15;;;3.70;;
50355;SDS011;36264;51.296;-0.602;2022-12-07T12:51:40;8.52;;;3.85;;
50355;SDS011;36264;51.296;-0.602;2022-12-07T12:56:46;11.52;;;3.60;;
50355;SDS011;36264;51.296;-0.602;2022-12-07T13:20:46;10.65;;;3.90;;
50355;SDS011;36264;51.296;-0.602;2022-12-07T13:23:13;7.30;;;3.25;;
50355;SDS011;36264;51.296;-0.602;2022-12-07T13:25:49;7.30;;;3.45;;
50355;SDS011;36264;51.296;-0.602;2022-12-07T13:28:19;7.93;;;3.70;;
50355;SDS011;36264;51.296;-0.602;2022-12-07T13:30:58;6.07;;;3.10;;
50355;SDS011;36264;51.296;-0.602;2022-12-07T13:33:28;6.53;;;3.08;;
50355;SDS011;36264;51.296;-0.602;2022-12-07T13:35:54;6.45;;;3.10;;
50355;SDS011;36264;51.296;-0.602;2022-12-07T13:38:32;5.97;;;3.10;;
50355;SDS011;36264;51.296;-0.602;2022-12-07T13:41:01;5.68;;;3.03;;
50355;SDS011;36264;51.296;-0.602;2022-12-07T13:43:27;7.13;;;3.33;;
50355;SDS011;36264;51.296;-0.602;2022-12-07T13:45:56;5.45;;;2.70;;
50355;SDS011;36264;51.296;-0.602;2022-12-07T13:48:33;4.43;;;2.40;;
50355;SDS011;36264;51.296;-0.602;2022-12-07T13:51:14;7.93;;;3.10;;
50355;SDS011;36264;51.296;-0.602;2022-12-07T13:53:46;8.25;;;2.92;;
50355;SDS011;36264;51.296;-0.602;2022-12-07T13:56:12;6.82;;;2.83;;
50355;SDS011;36264;51.296;-0.602;2022-12-07T13:58:39;7.82;;;2.97;;
50355;SDS011;36264;51.296;-0.602;2022-12-07T14:01:05;5.57;;;2.72;;
50355;SDS011;36264;51.296;-0.602;2022-12-07T14:03:32;7.20;;;2.60;;
50355;SDS011;36264;51.296;-0.602;2022-12-07T14:06:46;5.30;;;2.50;;
50355;SDS011;36264;51.296;-0.602;2022-12-07T14:08:50;6.65;;;2.70;;
50355;SDS011;36264;51.296;-0.602;2022-12-07T14:11:30;6.38;;;2.30;;
50355;SDS011;36264;51.296;-0.602;2022-12-07T14:13:57;9.85;;;3.28;;
50355;SDS011;36264;51.296;-0.602;2022-12-07T14:19:05;5.45;;;2.53;;
50355;SDS011;36264;51.296;-0.602;2022-12-07T14:22:08;6.65;;;2.70;;
50355;SDS011;36264;51.296;-0.602;2022-12-07T14:24:43;4.80;;;2.40;;
50355;SDS011;36264;51.296;-0.602;2022-12-07T14:27:22;7.07;;;2.60;;
50355;SDS011;36264;51.296;-0.602;2022-12-07T14:29:50;6.93;;;2.78;;
50355;SDS011;36264;51.296;-0.602;2022-12-07T14:35:00;8.40;;;3.20;;
50355;SDS011;36264;51.296;-0.602;2022-12-07T14:37:28;5.30;;;2.90;;
50355;SDS011;36264;51.296;-0.602;2022-12-07T14:39:55;7.38;;;2.90;;
50355;SDS011;36264;51.296;-0.602;2022-12-07T14:42:20;5.93;;;3.15;;
50355;SDS011;36264;51.296;-0.602;2022-12-07T14:44:49;9.95;;;3.30;;
50355;SDS011;36264;51.296;-0.602;2022-12-07T14:47:14;9.60;;;3.45;;
50355;SDS011;36264;51.296;-0.602;2022-12-07T14:49:40;11.75;;;3.60;;
50355;SDS011;36264;51.296;-0.602;2022-12-07T14:52:05;9.15;;;3.10;;
50355;SDS011;36264;51.296;-0.602;2022-12-07T14:54:37;7.43;;;3.38;;
50355;SDS011;36264;51.296;-0.602;2022-12-07T14:57:03;9.30;;;3.63;;
50355;SDS011;36264;51.296;-0.602;2022-12-07T14:59:28;8.10;;;3.40;;
50355;SDS011;36264;51.296;-0.602;2022-12-07T15:01:54;8.68;;;3.55;;
50355;SDS011;36264;51.296;-0.602;2022-12-07T15:04:19;5.45;;;2.97;;
50355;SDS011;36264;51.296;-0.602;2022-12-07T15:06:54;8.32;;;3.33;;
50355;SDS011;36264;51.296;-0.602;2022-12-07T15:09:23;7.40;;;3.10;;
50355;SDS011;36264;51.296;-0.602;2022-12-07T15:11:49;6.78;;;2.70;;
50355;SDS011;36264;51.296;-0.602;2022-12-07T15:14:14;5.15;;;2.63;;
50355;SDS011;36264;51.296;-0.602;2022-12-07T15:16:41;5.63;;;2.95;;
50355;SDS011;36264;51.296;-0.602;2022-12-07T15:19:20;5.57;;;2.90;;
50355;SDS011;36264;51.296;-0.602;2022-12-07T15:21:51;7.32;;;3.05;;
50355;SDS011;36264;51.296;-0.602;2022-12-07T15:24:17;7.70;;;2.78;;
50355;SDS011;36264;51.296;-0.602;2022-12-07T15:26:43;7.55;;;2.95;;
50355;SDS011;36264;51.296;-0.602;2022-12-07T15:29:09;6.22;;;2.47;;
50355;SDS011;36264;51.296;-0.602;2022-12-07T15:31:35;6.80;;;2.88;;
50355;SDS011;36264;51.296;-0.602;2022-12-07T15:34:01;5.25;;;2.53;;
50355;SDS011;36264;51.296;-0.602;2022-12-07T15:36:27;5.95;;;2.72;;
50355;SDS011;36264;51.296;-0.602;2022-12-07T15:38:55;6.00;;;2.75;;
50355;SDS011;36264;51.296;-0.602;2022-12-07T15:41:21;7.90;;;2.88;;
50355;SDS011;36264;51.296;-0.602;2022-12-07T15:43:46;5.53;;;2.65;;
50355;SDS011;36264;51.296;-0.602;2022-12-07T15:46:35;6.45;;;2.60;;
50355;SDS011;36264;51.296;-0.602;2022-12-07T15:49:02;9.48;;;2.88;;
50355;SDS011;36264;51.296;-0.602;2022-12-07T15:51:29;7.80;;;2.80;;
50355;SDS011;36264;51.296;-0.602;2022-12-07T15:53:54;9.20;;;3.10;;
50355;SDS011;36264;51.296;-0.602;2022-12-07T15:56:20;8.88;;;3.65;;
50355;SDS011;36264;51.296;-0.602;2022-12-07T15:58:45;5.05;;;2.70;;
50355;SDS011;36264;51.296;-0.602;2022-12-07T16:01:11;7.65;;;3.70;;
50355;SDS011;36264;51.296;-0.602;2022-12-07T16:03:41;8.15;;;4.10;;
50355;SDS011;36264;51.296;-0.602;2022-12-07T16:06:08;11.93;;;4.28;;
50355;SDS011;36264;51.296;-0.602;2022-12-07T16:08:33;8.15;;;4.22;;
50355;SDS011;36264;51.296;-0.602;2022-12-07T16:10:59;16.13;;;5.68;;
50355;SDS011;36264;51.296;-0.602;2022-12-07T16:13:29;14.85;;;5.78;;
50355;SDS011;36264;51.296;-0.602;2022-12-07T16:15:54;13.93;;;5.68;;
50355;SDS011;36264;51.296;-0.602;2022-12-07T16:18:19;13.23;;;4.28;;
50355;SDS011;36264;51.296;-0.602;2022-12-07T16:20:47;10.65;;;4.63;;
50355;SDS011;36264;51.296;-0.602;2022-12-07T16:23:13;10.32;;;4.22;;
50355;SDS011;36264;51.296;-0.602;2022-12-07T16:25:38;10.98;;;4.20;;
50355;SDS011;36264;51.296;-0.602;2022-12-07T16:28:04;9.70;;;4.15;;
50355;SDS011;36264;51.296;-0.602;2022-12-07T16:30:29;8.35;;;3.53;;
50355;SDS011;36264;51.296;-0.602;2022-12-07T16:32:55;9.80;;;3.40;;
50355;SDS011;36264;51.296;-0.602;2022-12-07T16:35:20;7.72;;;3.17;;
50355;SDS011;36264;51.296;-0.602;2022-12-07T16:37:45;6.32;;;3.47;;
50355;SDS011;36264;51.296;-0.602;2022-12-07T16:40:11;5.70;;;2.85;;
50355;SDS011;36264;51.296;-0.602;2022-12-07T16:42:37;8.70;;;3.10;;
50355;SDS011;36264;51.296;-0.602;2022-12-07T16:45:02;7.88;;;3.25;;
50355;SDS011;36264;51.296;-0.602;2022-12-07T16:47:28;6.30;;;3.25;;
50355;SDS011;36264;51.296;-0.602;2022-12-07T16:49:53;7.50;;;3.30;;
50355;SDS011;36264;51.296;-0.602;2022-12-07T16:52:19;6.82;;;2.90;;
50355;SDS011;36264;51.296;-0.602;2022-12-07T16:54:45;6.40;;;2.92;;
50355;SDS011;36264;51.296;-0.602;2022-12-07T16:57:12;7.63;;;3.70;;
50355;SDS011;36264;51.296;-0.602;2022-12-07T16:59:37;8.10;;;3.17;;
50355;SDS011;36264;51.296;-0.602;2022-12-07T17:02:03;7.82;;;3.55;;
50355;SDS011;36264;51.296;-0.602;2022-12-07T17:04:28;6.38;;;3.00;;
50355;SDS011;36264;51.296;-0.602;2022-12-07T17:06:54;5.68;;;3.03;;
50355;SDS011;36264;51.296;-0.602;2022-12-07T17:09:19;7.85;;;4.13;;
50355;SDS011;36264;51.296;-0.602;2022-12-07T17:11:45;9.25;;;2.97;;